Time;durP1;ratioP1;P1;durP2;ratioP2;P2;SDS_P1;SDS_P2;PMS_P1;PMS_P2;Temp;Humidity;BMP_temperature;BMP_pressure;BME280_temperature;BME280_humidity;BME280_pressure;Samples;Min_cycle;Max_cycle;Signal;HPM_P1;HPM_P2
2023/07/27 00:00:12;;;;;;;2.65;2.08;;;;;;;23.06;44.06;101043.38;5036801;28;20103;-34
2023/07/27 00:02:39;;;;;;;2.95;2.10;;;;;;;23.06;43.75;101037.97;5040763;28;20342;-34
2023/07/27 00:05:06;;;;;;;2.65;1.67;;;;;;;23.06;44.08;101037.13;5037667;28;20417;-35
2023/07/27 00:07:33;;;;;;;2.40;1.75;;;;;;;23.04;44.36;101029.22;5039003;28;20037;-35
2023/07/27 00:09:59;;;;;;;2.58;1.90;;;;;;;23.05;44.38;101030.06;5037116;28;20504;-34
2023/07/27 00:12:26;;;;;;;3.13;2.03;;;;;;;23.05;44.06;101036.31;5037712;28;20116;-34
2023/07/27 00:14:52;;;;;;;3.05;2.17;;;;;;;23.04;44.25;101028.38;5037521;28;20057;-35
2023/07/27 00:17:19;;;;;;;2.03;1.58;;;;;;;23.04;44.34;101029.22;5038447;28;20049;-35
2023/07/27 00:19:45;;;;;;;3.60;2.05;;;;;;;23.03;44.15;101035.63;5040374;28;20388;-34
2023/07/27 00:22:12;;;;;;;2.88;2.20;;;;;;;23.03;44.20;101029.38;5042796;28;20053;-34
2023/07/27 00:24:39;;;;;;;2.40;2.03;;;;;;;23.02;44.49;101028.56;5039100;28;20045;-34
2023/07/27 00:27:05;;;;;;;4.40;2.08;;;;;;;23.02;44.44;101036.66;5039496;28;20050;-34
2023/07/27 00:29:32;;;;;;;3.05;1.80;;;;;;;23.01;44.15;101029.56;5037751;28;20072;-35
2023/07/27 00:31:59;;;;;;;2.75;1.80;;;;;;;23.00;44.34;101027.91;5034137;28;20049;-35
2023/07/27 00:34:26;;;;;;;2.90;1.90;;;;;;;23.00;44.15;101027.91;5037687;28;20099;-34
2023/07/27 00:36:52;;;;;;;3.10;1.80;;;;;;;22.97;44.05;101025.56;5039149;28;20506;-35
2023/07/27 00:39:19;;;;;;;3.00;2.00;;;;;;;22.98;44.40;101026.41;5038922;28;20099;-34
2023/07/27 00:41:45;;;;;;;3.65;2.20;;;;;;;22.96;44.35;101025.75;5040636;28;20142;-35
2023/07/27 00:44:12;;;;;;;2.55;1.92;;;;;;;22.95;44.34;101019.47;5038394;28;20068;-34
2023/07/27 00:46:39;;;;;;;2.47;1.75;;;;;;;22.94;44.34;101011.56;5038514;28;20048;-35
2023/07/27 00:49:06;;;;;;;3.88;2.10;;;;;;;22.93;44.49;101015.28;5036800;28;20115;-38
2023/07/27 00:51:40;;;;;;;3.15;2.00;;;;;;;22.89;44.55;101007.50;5035875;28;20124;-35
2023/07/27 00:54:08;;;;;;;;;;;;;;;22.87;45.02;101003.28;5037282;28;20049;-34
2023/07/27 00:56:37;;;;;;;4.10;2.20;;;;;;;22.90;44.46;101006.50;5031832;28;19975;-34
2023/07/27 00:59:05;;;;;;;2.53;1.85;;;;;;;22.88;44.56;101007.72;5031798;28;20437;-34
2023/07/27 01:01:32;;;;;;;2.58;1.60;;;;;;;22.86;44.85;100998.91;5036720;28;20045;-34
2023/07/27 01:04:00;;;;;;;3.33;1.98;;;;;;;22.84;44.81;100995.56;5017239;28;20137;-35
2023/07/27 01:06:27;;;;;;;3.45;2.20;;;;;;;22.81;44.76;100985.97;5035994;28;20049;-34
2023/07/27 01:08:54;;;;;;;2.55;1.80;;;;;;;22.81;44.83;100988.66;5039126;28;20075;-34
2023/07/27 01:11:38;;;;;;;3.47;2.05;;;;;;;22.78;45.36;100977.38;5039848;28;20060;-35
2023/07/27 01:14:14;;;;;;;4.03;2.15;;;;;;;22.78;44.80;100969.25;5036033;28;20089;-34
2023/07/27 01:16:48;;;;;;;3.03;1.83;;;;;;;22.78;45.32;100974.66;5024715;28;20123;-36
2023/07/27 01:19:30;;;;;;;2.58;1.83;;;;;;;22.75;45.30;100967.75;5032990;28;20041;-35
2023/07/27 01:22:17;;;;;;;3.13;2.00;;;;;;;22.73;45.50;100964.41;5036924;28;20053;-35
2023/07/27 01:24:56;;;;;;;3.75;2.00;;;;;;;22.74;45.36;100963.38;5025417;28;20455;-35
2023/07/27 01:27:42;;;;;;;2.95;2.10;;;;;;;22.71;45.58;100952.94;5041716;28;20504;-34
2023/07/27 01:30:24;;;;;;;2.80;1.83;;;;;;;22.73;45.54;100958.16;5040786;28;20396;-36
2023/07/27 01:33:04;;;;;;;2.35;1.67;;;;;;;22.73;45.21;100960.88;5040259;28;20132;-35
2023/07/27 01:35:48;;;;;;;3.25;1.90;;;;;;;22.70;45.51;100945.00;5039029;28;20041;-38
2023/07/27 01:38:15;;;;;;;3.40;1.83;;;;;;;22.72;45.67;100953.78;5044534;28;20077;-36
2023/07/27 01:40:44;;;;;;;3.47;1.90;;;;;;;22.70;45.31;100942.31;5042595;28;20053;-35
2023/07/27 01:43:12;;;;;;;3.85;2.00;;;;;;;22.69;45.27;100938.78;5042679;28;20076;-34
2023/07/27 01:45:39;;;;;;;2.55;1.77;;;;;;;22.68;45.41;100931.69;5040591;28;20052;-33
2023/07/27 01:48:08;;;;;;;3.78;1.80;;;;;;;22.67;45.75;100925.47;5039709;28;20068;-34
2023/07/27 01:50:36;;;;;;;2.50;1.58;;;;;;;22.67;45.65;100924.59;5041721;28;20092;-35
2023/07/27 01:53:03;;;;;;;2.22;1.52;;;;;;;22.66;45.52;100915.66;5043143;28;20052;-36
2023/07/27 01:55:30;;;;;;;2.40;2.00;;;;;;;22.65;45.96;100911.28;5044217;28;20417;-35
2023/07/27 01:57:59;;;;;;;2.63;1.90;;;;;;;22.64;45.81;100904.19;5045328;28;20144;-39
2023/07/27 02:00:28;;;;;;;2.38;1.48;;;;;;;22.64;45.85;100901.50;5038245;28;20045;-35
2023/07/27 02:02:55;;;;;;;2.30;1.60;;;;;;;22.65;45.76;100902.34;5037134;28;20085;-34
2023/07/27 02:05:23;;;;;;;2.40;1.50;;;;;;;22.64;45.60;100898.78;5040886;28;20045;-35
2023/07/27 02:07:49;;;;;;;2.60;1.75;;;;;;;22.63;45.61;100891.72;5043258;28;20140;-35
2023/07/27 02:10:17;;;;;;;2.50;1.35;;;;;;;22.63;45.64;100883.63;5040587;28;20041;-34
2023/07/27 02:12:50;;;;;;;2.33;1.50;;;;;;;22.64;45.91;100882.59;5040601;28;20148;-34
2023/07/27 02:15:23;;;;;;;2.15;1.60;;;;;;;22.62;45.88;100879.22;5040743;28;20119;-35
2023/07/27 02:17:58;;;;;;;1.50;1.30;;;;;;;22.62;46.03;100867.56;5037765;28;20060;-34
2023/07/27 02:20:28;;;;;;;3.25;1.90;;;;;;;22.62;45.91;100856.75;5036749;28;21014;-34
2023/07/27 02:22:55;;;;;;;1.95;1.40;;;;;;;22.60;46.14;100851.56;5032779;28;20112;-34
2023/07/27 02:25:22;;;;;;;2.15;1.45;;;;;;;22.60;45.84;100850.72;5039080;28;20045;-36
2023/07/27 02:27:49;;;;;;;2.33;1.58;;;;;;;22.59;45.99;100844.47;5035909;28;20084;-34
2023/07/27 02:30:16;;;;;;;2.30;1.50;;;;;;;22.59;45.88;100841.78;5039227;28;20417;-34
2023/07/27 02:32:42;;;;;;;2.80;1.45;;;;;;;22.59;45.98;100836.38;5034054;28;20485;-35
2023/07/27 02:35:09;;;;;;;2.05;1.23;;;;;;;22.56;46.11;100825.94;5036690;28;20049;-36
2023/07/27 02:37:36;;;;;;;2.03;1.60;;;;;;;22.56;46.27;100825.94;5033361;28;20096;-34
2023/07/27 02:40:02;;;;;;;1.95;1.42;;;;;;;22.55;46.00;100813.47;5035466;28;20095;-35
2023/07/27 02:42:29;;;;;;;3.05;1.60;;;;;;;22.55;45.90;100813.47;5034502;28;20388;-35
2023/07/27 02:44:56;;;;;;;1.90;1.25;;;;;;;22.54;46.05;100800.94;5032741;28;20049;-34
2023/07/27 02:47:22;;;;;;;2.60;1.50;;;;;;;22.54;46.06;100803.66;5033496;28;20095;-34
2023/07/27 02:49:49;;;;;;;2.28;1.60;;;;;;;22.53;46.02;100796.56;5033497;28;20060;-35
2023/07/27 02:52:15;;;;;;;2.25;1.77;;;;;;;22.53;46.25;100799.28;5037575;28;20050;-34
2023/07/27 02:54:42;;;;;;;2.75;1.52;;;;;;;22.53;46.36;100790.34;5037725;28;20052;-34
2023/07/27 02:57:09;;;;;;;1.80;1.42;;;;;;;22.53;46.16;100780.38;5034376;28;20891;-34
2023/07/27 02:59:35;;;;;;;2.25;1.65;;;;;;;22.52;46.02;100769.75;5034145;28;20140;-34
2023/07/27 03:02:02;;;;;;;1.60;1.30;;;;;;;22.50;46.17;100767.22;5032073;28;20057;-34
2023/07/27 03:04:28;;;;;;;2.38;1.38;;;;;;;22.50;45.60;100764.53;5033776;28;20322;-34
2023/07/27 03:06:55;;;;;;;2.33;1.63;;;;;;;22.50;46.15;100755.59;5032392;28;20076;-35
2023/07/27 03:09:22;;;;;;;2.40;1.30;;;;;;;22.49;46.13;100752.06;5035493;28;20096;-35
2023/07/27 03:11:49;;;;;;;2.35;1.30;;;;;;;22.49;46.09;100746.66;5047034;28;20515;-34
2023/07/27 03:14:16;;;;;;;2.60;1.80;;;;;;;22.49;46.56;100746.66;5034750;28;20056;-35
2023/07/27 03:16:42;;;;;;;2.10;1.42;;;;;;;22.49;46.52;100740.41;5033967;28;20064;-35
2023/07/27 03:19:09;;;;;;;2.17;1.02;;;;;;;22.49;46.23;100722.34;5034945;28;20048;-34
2023/07/27 03:21:36;;;;;;;1.67;1.33;;;;;;;22.49;46.19;100718.81;5034565;28;20045;-38
2023/07/27 03:24:02;;;;;;;2.13;1.35;;;;;;;22.49;46.19;100710.72;5037607;28;20403;-34
2023/07/27 03:26:29;;;;;;;1.83;1.30;;;;;;;22.47;46.22;100710.88;5037654;28;20140;-34
2023/07/27 03:28:55;;;;;;;1.65;1.27;;;;;;;22.48;46.21;100701.78;5037280;28;20041;-36
2023/07/27 03:31:24;;;;;;;1.55;1.25;;;;;;;22.47;46.13;100694.66;5036589;28;20096;-34
2023/07/27 03:33:51;;;;;;;1.63;1.33;;;;;;;22.47;46.48;100686.56;5032865;28;20140;-36
2023/07/27 03:36:19;;;;;;;2.15;1.15;;;;;;;22.47;46.08;100688.44;5034155;28;20058;-34
2023/07/27 03:38:46;;;;;;;1.55;1.20;;;;;;;22.45;46.61;100680.53;5034369;28;20440;-35
2023/07/27 03:41:13;;;;;;;1.35;1.05;;;;;;;22.45;46.54;100682.41;5033937;28;20060;-35
2023/07/27 03:43:40;;;;;;;1.63;1.25;;;;;;;22.45;46.60;100674.28;5036856;28;20103;-34
2023/07/27 03:46:06;;;;;;;1.95;1.30;;;;;;;22.45;46.71;100671.59;5034128;28;20049;-34
2023/07/27 03:48:33;;;;;;;1.92;1.30;;;;;;;22.44;46.43;100668.06;5034860;28;20886;-34
2023/07/27 03:51:01;;;;;;;2.28;1.55;;;;;;;22.42;46.57;100667.38;5032126;28;20073;-34
2023/07/27 03:53:29;;;;;;;1.58;1.20;;;;;;;22.43;46.39;100658.25;5034682;28;20379;-34
2023/07/27 03:55:55;;;;;;;2.00;1.40;;;;;;;22.42;46.73;100659.28;5032259;28;20077;-35
2023/07/27 03:58:23;;;;;;;2.13;1.35;;;;;;;22.41;46.64;100658.47;5028147;28;20061;-35
2023/07/27 04:00:49;;;;;;;2.03;1.58;;;;;;;22.41;46.81;100654.91;5029266;28;20399;-34
2023/07/27 04:03:16;;;;;;;1.90;1.48;;;;;;;22.40;46.66;100645.16;5031347;28;20049;-33
2023/07/27 04:05:43;;;;;;;1.90;1.40;;;;;;;22.40;46.63;100639.75;5029476;28;20057;-35
2023/07/27 04:08:12;;;;;;;2.28;1.27;;;;;;;22.39;46.87;100646.16;5025816;28;20299;-35
2023/07/27 04:10:42;;;;;;;1.67;1.10;;;;;;;22.39;46.84;100635.34;5030719;28;20049;-35
2023/07/27 04:13:10;;;;;;;2.67;1.70;;;;;;;22.39;46.69;100632.66;5024941;28;20132;-34
2023/07/27 04:15:39;;;;;;;4.90;1.55;;;;;;;22.38;46.61;100631.81;5028796;28;20053;-35
2023/07/27 04:18:06;;;;;;;3.08;1.45;;;;;;;22.37;46.88;100627.44;5035365;28;20049;-34
2023/07/27 04:20:33;;;;;;;4.47;2.05;;;;;;;22.37;47.15;100626.63;5041449;28;20048;-34
2023/07/27 04:22:59;;;;;;;2.85;1.60;;;;;;;22.35;46.79;100628.66;5026444;28;20392;-37
2023/07/27 04:25:26;;;;;;;3.28;1.52;;;;;;;22.34;47.20;100627.81;5038838;28;20508;-34
2023/07/27 04:27:53;;;;;;;3.00;1.60;;;;;;;22.33;47.11;100612.66;5036056;28;20482;-35
2023/07/27 04:30:19;;;;;;;4.05;1.85;;;;;;;22.32;47.14;100608.28;5043642;28;20472;-34
2023/07/27 04:32:46;;;;;;;2.97;1.58;;;;;;;22.31;47.06;100606.63;5040618;28;20115;-34
2023/07/27 04:35:12;;;;;;;3.97;1.73;;;;;;;22.30;47.10;100604.91;5030801;28;20045;-34
2023/07/27 04:37:39;;;;;;;2.20;1.65;;;;;;;22.30;47.36;100598.69;5036332;28;20045;-34
2023/07/27 04:40:06;;;;;;;3.25;1.95;;;;;;;22.28;47.16;100590.78;5035189;28;20045;-34
2023/07/27 04:42:33;;;;;;;2.83;1.65;;;;;;;22.28;47.38;100595.34;5031557;28;20107;-35
2023/07/27 04:44:59;;;;;;;2.08;1.63;;;;;;;22.26;47.82;100595.50;5034742;28;20102;-34
2023/07/27 04:47:26;;;;;;;4.53;2.17;;;;;;;22.26;47.36;100594.69;5034545;28;20045;-34
2023/07/27 04:49:53;;;;;;;2.50;1.58;;;;;;;22.26;47.44;100578.47;5042694;28;20045;-34
2023/07/27 04:52:20;;;;;;;3.25;1.92;;;;;;;22.25;47.57;100579.50;5037078;28;20069;-34
2023/07/27 04:54:46;;;;;;;4.00;1.88;;;;;;;22.24;47.43;100577.84;5034910;28;20072;-35
2023/07/27 04:57:13;;;;;;;3.63;1.80;;;;;;;22.24;47.66;100573.28;5030479;28;20059;-34
2023/07/27 04:59:39;;;;;;;3.78;1.83;;;;;;;22.24;48.26;100561.66;5029006;28;20123;-34
2023/07/27 05:02:06;;;;;;;4.10;1.80;;;;;;;22.23;47.36;100560.81;5030674;28;20103;-34
2023/07/27 05:04:33;;;;;;;2.97;1.65;;;;;;;22.23;47.36;100555.41;5033252;28;20810;-34
2023/07/27 05:06:59;;;;;;;3.67;2.17;;;;;;;22.22;47.50;100556.41;5032064;28;20152;-35
2023/07/27 05:09:26;;;;;;;2.92;1.83;;;;;;;22.22;47.48;100545.63;5028152;28;20104;-36
2023/07/27 05:11:52;;;;;;;4.20;1.98;;;;;;;22.21;47.95;100546.66;5033013;28;20088;-35
2023/07/27 05:14:19;;;;;;;3.38;2.30;;;;;;;22.21;47.77;100543.97;5031734;28;20334;-34
2023/07/27 05:16:45;;;;;;;2.00;1.77;;;;;;;22.22;47.56;100542.91;5030961;28;20549;-35
2023/07/27 05:19:12;;;;;;;3.70;2.05;;;;;;;22.21;47.64;100546.66;5035534;28;20045;-34
2023/07/27 05:21:39;;;;;;;2.70;1.95;;;;;;;22.21;47.95;100540.41;5033387;28;20056;-35
2023/07/27 05:24:05;;;;;;;3.83;2.00;;;;;;;22.20;47.73;100534.19;5028384;28;20053;-34
2023/07/27 05:26:32;;;;;;;2.72;1.90;;;;;;;22.21;47.71;100529.63;5030169;28;20342;-34
2023/07/27 05:28:59;;;;;;;4.32;2.10;;;;;;;22.20;47.72;100531.50;5032260;28;20052;-34
2023/07/27 05:31:26;;;;;;;3.67;1.95;;;;;;;22.20;47.78;100526.09;5031642;28;20045;-34
2023/07/27 05:33:53;;;;;;;3.63;1.98;;;;;;;22.20;47.84;100526.09;5029308;28;20057;-35
2023/07/27 05:36:19;;;;;;;3.90;2.00;;;;;;;22.20;47.91;100517.16;5032256;28;20398;-34
2023/07/27 05:38:46;;;;;;;3.25;1.77;;;;;;;22.21;47.99;100519.66;5031832;28;20053;-34
2023/07/27 05:41:12;;;;;;;3.10;1.63;;;;;;;22.20;47.90;100515.28;5030110;28;20081;-34
2023/07/27 05:43:39;;;;;;;2.70;2.00;;;;;;;22.20;47.97;100518.00;5032201;28;20111;-35
2023/07/27 05:46:05;;;;;;;3.22;2.13;;;;;;;22.21;47.98;100516.13;5038284;28;20045;-34
2023/07/27 05:48:34;;;;;;;5.95;2.53;;;;;;;22.20;48.40;100517.16;5037206;28;20052;-34
2023/07/27 05:51:01;;;;;;;2.92;2.15;;;;;;;22.19;48.05;100505.50;5035130;28;20448;-34
2023/07/27 05:53:27;;;;;;;2.92;1.75;;;;;;;22.21;47.83;100508.03;5032128;28;20049;-34
2023/07/27 05:55:54;;;;;;;3.13;2.35;;;;;;;22.22;47.72;100501.59;5035839;28;20482;-34
2023/07/27 05:58:21;;;;;;;2.60;1.98;;;;;;;22.21;48.14;100502.63;5035314;28;20143;-35
2023/07/27 06:00:59;;;;;;;3.40;2.40;;;;;;;22.21;47.93;100503.47;5033761;28;20496;-34
2023/07/27 06:03:27;;;;;;;4.22;2.83;;;;;;;22.22;47.83;100486.22;5035800;28;20049;-34
2023/07/27 06:05:54;;;;;;;3.65;2.00;;;;;;;22.23;47.96;100485.22;5040067;28;20127;-35
2023/07/27 06:08:21;;;;;;;3.38;2.10;;;;;;;22.24;47.90;100492.28;5036090;28;20437;-33
2023/07/27 06:10:48;;;;;;;5.95;2.58;;;;;;;22.24;47.83;100491.47;5034598;28;20052;-33
2023/07/27 06:13:15;;;;;;;3.63;2.30;;;;;;;22.24;47.81;100486.88;5033841;28;20056;-34
2023/07/27 06:15:48;;;;;;;3.42;2.20;;;;;;;22.25;48.12;100483.16;5040801;28;20489;-34
2023/07/27 06:18:14;;;;;;;3.33;2.20;;;;;;;22.27;47.99;100477.56;5034774;28;20049;-34
2023/07/27 06:20:41;;;;;;;4.05;2.20;;;;;;;22.27;48.22;100474.84;5035968;28;20132;-34
2023/07/27 06:23:08;;;;;;;3.95;1.95;;;;;;;22.27;47.80;100482.94;5033631;28;20057;-33
2023/07/27 06:25:34;;;;;;;3.17;2.08;;;;;;;22.28;47.84;100471.16;5032562;28;20493;-35
2023/07/27 06:28:01;;;;;;;4.13;2.17;;;;;;;22.28;48.04;100469.28;5034629;28;20065;-35
2023/07/27 06:30:27;;;;;;;4.85;2.30;;;;;;;22.28;48.04;100471.16;5038283;28;20095;-35
2023/07/27 06:32:54;;;;;;;2.53;1.50;;;;;;;22.29;47.99;100467.41;5039127;28;20053;-34
2023/07/27 06:35:21;;;;;;;2.42;1.67;;;;;;;22.29;47.86;100462.00;5036257;28;20869;-34
2023/07/27 06:37:47;;;;;;;2.65;2.20;;;;;;;22.30;47.89;100452.88;5034998;28;20767;-34
2023/07/27 06:40:14;;;;;;;2.45;1.83;;;;;;;22.29;48.09;100445.81;5034303;28;20094;-35
2023/07/27 06:42:40;;;;;;;3.65;1.60;;;;;;;22.30;48.25;100442.06;5034415;28;20046;-35
2023/07/27 06:45:07;;;;;;;3.08;1.88;;;;;;;22.30;48.01;100442.91;5036599;28;20049;-35
2023/07/27 06:47:34;;;;;;;2.80;1.83;;;;;;;22.31;48.27;100435.66;5033820;28;20049;-35
2023/07/27 06:50:01;;;;;;;3.22;1.83;;;;;;;22.30;48.19;100434.81;5034859;28;20072;-34
2023/07/27 06:52:27;;;;;;;2.63;1.55;;;;;;;22.32;48.56;100442.75;5033051;28;20459;-34
2023/07/27 06:54:54;;;;;;;2.72;1.83;;;;;;;22.31;48.09;100438.34;5030273;28;20049;-34
2023/07/27 06:57:24;;;;;;;2.97;1.80;;;;;;;22.31;48.42;100450.00;5029876;28;20059;-34
2023/07/27 06:59:51;;;;;;;2.83;1.70;;;;;;;22.31;48.23;100441.91;5034369;28;20095;-34
2023/07/27 07:02:18;;;;;;;2.20;1.70;;;;;;;22.32;48.30;100435.47;5031152;28;20441;-35
2023/07/27 07:04:45;;;;;;;2.25;1.60;;;;;;;22.32;48.45;100443.56;5031290;28;20056;-35
2023/07/27 07:07:13;;;;;;;1.63;1.30;;;;;;;22.33;48.51;100441.69;5029841;28;20052;-34
2023/07/27 07:09:40;;;;;;;1.70;1.42;;;;;;;22.33;48.51;100441.69;5029154;28;20167;-34
2023/07/27 07:12:07;;;;;;;2.47;1.33;;;;;;;22.35;48.39;100445.03;5032691;28;20068;-35
2023/07/27 07:14:34;;;;;;;1.52;1.02;;;;;;;22.33;48.84;100442.53;5036810;28;20107;-34
2023/07/27 07:17:02;;;;;;;1.85;1.33;;;;;;;22.34;48.81;100432.56;5033571;28;20072;-34
2023/07/27 07:19:28;;;;;;;1.58;1.30;;;;;;;22.34;48.45;100438.78;5035683;28;20052;-35
2023/07/27 07:21:55;;;;;;;1.92;1.30;;;;;;;22.34;48.91;100430.69;5033690;28;20045;-35
2023/07/27 07:24:22;;;;;;;2.08;1.48;;;;;;;22.36;48.76;100430.53;5032512;28;20107;-34
2023/07/27 07:26:48;;;;;;;2.08;1.30;;;;;;;22.36;48.71;100441.31;5029222;28;20080;-34
2023/07/27 07:29:15;;;;;;;1.63;1.10;;;;;;;22.36;49.01;100436.75;5037407;28;20049;-34
2023/07/27 07:31:42;;;;;;;2.63;1.20;;;;;;;22.36;48.80;100430.53;5033666;28;20049;-36
2023/07/27 07:34:08;;;;;;;2.70;1.40;;;;;;;22.37;49.07;100441.13;5034810;28;20075;-34
2023/07/27 07:36:35;;;;;;;2.78;1.52;;;;;;;22.37;49.31;100433.03;5036642;28;20107;-34
2023/07/27 07:39:01;;;;;;;3.30;1.55;;;;;;;22.37;49.44;100434.88;5038054;28;20095;-33
2023/07/27 07:41:28;;;;;;;2.40;1.70;;;;;;;22.37;49.47;100424.09;5035004;28;20096;-34
2023/07/27 07:43:55;;;;;;;4.28;1.33;;;;;;;22.38;49.65;100429.28;5033616;28;20054;-34
2023/07/27 07:46:22;;;;;;;3.10;1.63;;;;;;;22.39;49.70;100435.53;5035625;28;20045;-34
2023/07/27 07:48:48;;;;;;;1.90;1.17;;;;;;;22.40;49.76;100427.25;5033623;28;20457;-35
2023/07/27 07:51:15;;;;;;;2.78;1.48;;;;;;;22.41;49.72;100422.69;5035580;28;20049;-34
2023/07/27 07:53:42;;;;;;;3.00;1.67;;;;;;;22.45;49.75;100423.13;5037689;28;20124;-35
2023/07/27 07:56:13;;;;;;;3.88;1.70;;;;;;;22.45;49.93;100417.72;5037206;28;20084;-35
2023/07/27 07:58:40;;;;;;;2.85;1.40;;;;;;;22.46;49.44;100406.72;5033988;28;20736;-34
2023/07/27 08:01:07;;;;;;;1.92;1.30;;;;;;;22.47;49.44;100408.38;5033669;28;20060;-35
2023/07/27 08:03:34;;;;;;;1.88;1.10;;;;;;;22.49;49.41;100417.16;5032742;28;20326;-33
2023/07/27 08:06:01;;;;;;;5.82;1.40;;;;;;;22.50;49.64;100415.28;5032376;28;20041;-34
2023/07/27 08:08:27;;;;;;;2.75;1.40;;;;;;;22.51;49.48;100417.78;5035248;28;20053;-35
2023/07/27 08:11:00;;;;;;;2.85;1.45;;;;;;;22.51;49.51;100411.53;5034350;28;20445;-34
2023/07/27 08:13:26;;;;;;;2.00;1.17;;;;;;;22.53;49.43;100415.72;5031569;28;20939;-36
2023/07/27 08:15:54;;;;;;;2.65;1.27;;;;;;;22.53;49.13;100415.72;5031021;28;20084;-35
2023/07/27 08:18:21;;;;;;;6.00;1.80;;;;;;;22.55;49.14;100410.13;5029093;28;20053;-33
2023/07/27 08:21:04;;;;;;;3.17;1.40;;;;;;;22.54;49.48;100409.28;5032976;28;20353;-34
2023/07/27 08:23:31;;;;;;;3.10;1.58;;;;;;;22.57;49.51;100411.59;5030808;28;20056;-35
2023/07/27 08:26:00;;;;;;;5.72;1.67;;;;;;;22.57;49.51;100403.50;5034019;28;20064;-37
2023/07/27 08:28:27;;;;;;;3.17;1.30;;;;;;;22.58;49.43;100410.56;5032428;28;20053;-34
2023/07/27 08:30:53;;;;;;;6.05;1.88;;;;;;;22.58;49.66;100407.88;5031200;28;20049;-34
2023/07/27 08:33:20;;;;;;;3.00;1.88;;;;;;;22.58;49.26;100405.16;5028578;28;20068;-36
2023/07/27 08:35:47;;;;;;;5.35;1.75;;;;;;;22.59;49.24;100403.28;5042818;28;20053;-34
2023/07/27 08:38:13;;;;;;;3.40;1.70;;;;;;;22.59;49.49;100398.75;5034230;28;20321;-36
2023/07/27 08:40:40;;;;;;;3.20;1.42;;;;;;;22.59;49.57;100401.47;5047463;28;20045;-34
2023/07/27 08:43:08;;;;;;;4.68;1.50;;;;;;;22.60;49.35;100399.59;5034695;28;20132;-35
2023/07/27 08:45:36;;;;;;;3.75;1.70;;;;;;;22.60;49.41;100411.22;5032356;28;20114;-34
2023/07/27 08:48:04;;;;;;;4.22;1.63;;;;;;;22.61;49.23;100401.25;5024922;28;20045;-34
2023/07/27 08:50:31;;;;;;;6.97;1.67;;;;;;;22.61;49.54;100410.19;5034713;28;20040;-35
2023/07/27 08:52:58;;;;;;;2.00;1.45;;;;;;;22.62;49.40;100409.16;5035589;28;20064;-35
2023/07/27 08:55:25;;;;;;;3.38;1.60;;;;;;;22.62;49.69;100408.31;5029425;28;20128;-34
2023/07/27 08:57:52;;;;;;;4.00;1.52;;;;;;;22.61;49.38;100407.50;5025380;28;20061;-36
2023/07/27 09:00:18;;;;;;;2.72;1.50;;;;;;;22.63;49.31;100409.97;5029121;28;20380;-34
2023/07/27 09:02:45;;;;;;;4.28;1.50;;;;;;;22.63;49.17;100404.56;5030592;28;20135;-34
2023/07/27 09:05:15;;;;;;;4.57;1.70;;;;;;;22.64;49.26;100407.09;5032524;28;20085;-34
2023/07/27 09:07:42;;;;;;;5.25;1.58;;;;;;;22.64;49.27;100403.56;5030654;28;20052;-34
2023/07/27 09:10:09;;;;;;;3.45;1.20;;;;;;;22.65;49.42;100407.94;5032748;28;20052;-34
2023/07/27 09:12:36;;;;;;;4.70;1.77;;;;;;;22.65;49.39;100408.78;5029765;28;20441;-34
2023/07/27 09:15:12;;;;;;;1.85;1.20;;;;;;;22.65;49.65;100408.78;5032065;28;20120;-35
2023/07/27 09:17:39;;;;;;;2.50;1.35;;;;;;;22.65;49.23;100408.78;5029069;28;20076;-34
2023/07/27 09:20:11;;;;;;;2.75;1.60;;;;;;;22.67;49.36;100413.97;5031027;28;20063;-34
2023/07/27 09:22:37;;;;;;;3.22;1.52;;;;;;;22.67;49.36;100412.13;5038005;28;20119;-35
2023/07/27 09:25:07;;;;;;;4.32;2.00;;;;;;;22.67;49.38;100406.72;5039087;28;20046;-34
2023/07/27 09:27:41;;;;;;;2.53;1.33;;;;;;;22.67;49.55;100409.44;5033629;28;20064;-35
2023/07/27 09:30:08;;;;;;;5.00;1.52;;;;;;;22.69;49.26;100413.78;5039615;28;20057;-35
2023/07/27 09:32:35;;;;;;;4.15;1.63;;;;;;;22.70;49.54;100407.34;5031815;28;20061;-34
2023/07/27 09:35:03;;;;;;;3.53;1.75;;;;;;;22.70;49.30;100393.84;5036790;28;20045;-34
2023/07/27 09:37:30;;;;;;;5.00;1.55;;;;;;;22.71;48.96;100417.13;5035231;28;20049;-35
2023/07/27 09:40:10;;;;;;;2.42;1.50;;;;;;;22.70;49.23;100402.78;5035332;28;20056;-34
2023/07/27 09:42:37;;;;;;;2.03;1.13;;;;;;;22.73;49.34;100406.97;5034738;28;20372;-34
2023/07/27 09:45:05;;;;;;;2.95;1.42;;;;;;;22.73;49.24;100404.25;5032127;28;20136;-35
2023/07/27 09:47:31;;;;;;;2.15;1.10;;;;;;;22.74;49.21;100411.34;5033253;28;20052;-34
2023/07/27 09:50:00;;;;;;;2.15;1.00;;;;;;;22.75;49.14;100399.47;5034578;28;20417;-35
2023/07/27 09:52:28;;;;;;;1.65;0.90;;;;;;;22.76;49.12;100403.88;5034653;28;20103;-34
2023/07/27 09:54:56;;;;;;;2.72;1.30;;;;;;;22.77;49.19;100409.06;5035414;28;20072;-34
2023/07/27 09:57:23;;;;;;;3.38;1.33;;;;;;;22.77;49.18;100400.97;5033632;28;20123;-34
2023/07/27 09:59:50;;;;;;;5.22;1.25;;;;;;;22.79;49.56;100398.91;5033179;28;20053;-36
2023/07/27 10:02:17;;;;;;;2.13;1.38;;;;;;;22.79;49.47;100396.19;5041196;28;20045;-33
2023/07/27 10:04:56;;;;;;;2.05;1.00;;;;;;;22.79;49.14;100409.69;5042528;28;20056;-35
2023/07/27 10:07:26;;;;;;;2.42;1.05;;;;;;;22.80;49.53;100403.28;5044477;28;20424;-34
2023/07/27 10:10:33;;;;;;;1.75;1.00;;;;;;;22.80;49.32;100399.75;5038282;28;20132;-35
2023/07/27 10:13:34;;;;;;;1.58;1.10;;;;;;;22.82;49.38;100408.47;5039151;28;20046;-35
2023/07/27 10:16:01;;;;;;;2.05;0.95;;;;;;;22.84;49.62;100393.75;5036758;28;20513;-33
2023/07/27 10:18:29;;;;;;;1.92;0.95;;;;;;;22.85;49.70;100395.41;5038883;28;20057;-34
2023/07/27 10:21:23;;;;;;;3.22;1.10;;;;;;;22.86;49.34;100388.16;5030574;28;20045;-34
2023/07/27 10:23:54;;;;;;;3.58;0.90;;;;;;;22.89;49.37;100403.97;5033367;28;20055;-35
2023/07/27 10:26:21;;;;;;;1.83;1.00;;;;;;;22.89;49.17;100402.09;5037899;28;20041;-35
2023/07/27 10:28:48;;;;;;;3.15;1.10;;;;;;;22.90;49.32;100393.00;5039924;28;20340;-34
2023/07/27 10:31:26;;;;;;;1.90;1.00;;;;;;;22.90;49.27;100406.50;5039613;28;20044;-34
2023/07/27 10:34:12;;;;;;;1.85;1.10;;;;;;;22.90;49.16;100400.22;5035984;28;20401;-34
2023/07/27 10:36:57;;;;;;;1.38;1.08;;;;;;;22.91;49.46;100396.53;5033305;28;20045;-34
2023/07/27 10:39:32;;;;;;;1.77;1.15;;;;;;;22.92;49.67;100403.63;5027794;28;20124;-35
2023/07/27 10:42:12;;;;;;;2.78;1.10;;;;;;;22.92;49.41;100392.81;5038114;28;20138;-34
2023/07/27 10:44:47;;;;;;;1.85;1.40;;;;;;;22.94;49.59;100398.00;5041978;28;20696;-34
2023/07/27 10:47:19;;;;;;;2.13;1.23;;;;;;;22.95;49.56;100395.09;5037171;28;20077;-35
2023/07/27 10:49:48;;;;;;;2.42;0.70;;;;;;;22.96;49.21;100404.06;5041546;28;20087;-35
2023/07/27 10:52:20;;;;;;;2.15;0.88;;;;;;;22.96;49.59;100399.50;5034129;28;20045;-34
2023/07/27 10:54:48;;;;;;;2.65;0.82;;;;;;;22.98;49.57;100404.69;5032885;28;20187;-34
2023/07/27 10:57:17;;;;;;;1.55;0.63;;;;;;;22.98;49.51;100402.81;5031663;28;20057;-34
2023/07/27 10:59:51;;;;;;;1.00;0.60;;;;;;;22.98;49.70;100399.28;5031351;28;20144;-34
2023/07/27 11:02:23;;;;;;;1.75;0.75;;;;;;;22.98;49.44;100402.81;5030759;28;20087;-35
2023/07/27 11:04:54;;;;;;;1.92;0.90;;;;;;;22.98;49.70;100402.81;5035283;28;20049;-35
2023/07/27 11:07:42;;;;;;;1.05;0.70;;;;;;;22.98;49.70;100399.28;5034973;28;20146;-35
2023/07/27 11:10:11;;;;;;;0.82;0.63;;;;;;;22.99;49.66;100398.25;5033793;28;20287;-34
2023/07/27 11:12:52;;;;;;;1.30;0.70;;;;;;;22.98;49.81;100399.28;5033769;28;20132;-35
2023/07/27 11:15:20;;;;;;;2.10;0.90;;;;;;;22.98;49.50;100397.41;5032490;28;20394;-35
2023/07/27 11:17:53;;;;;;;1.10;0.82;;;;;;;22.99;49.47;100399.06;5033554;28;20049;-36
2023/07/27 11:20:24;;;;;;;1.30;0.63;;;;;;;22.99;49.49;100406.34;5034100;28;20099;-35
2023/07/27 11:22:52;;;;;;;1.20;0.60;;;;;;;23.00;49.70;100405.34;5032449;28;20055;-35
2023/07/27 11:25:19;;;;;;;0.85;0.55;;;;;;;22.99;49.66;100390.97;5033828;28;20053;-35
2023/07/27 11:27:50;;;;;;;1.17;0.70;;;;;;;22.99;49.70;100396.38;5036191;28;20076;-35
2023/07/27 11:30:21;;;;;;;2.08;0.93;;;;;;;23.00;49.41;100406.16;5036517;28;20128;-34